Time;durP1;ratioP1;P1;durP2;ratioP2;P2;SDS_P1;SDS_P2;PMS_P1;PMS_P2;Temp;Humidity;BMP_temperature;BMP_pressure;BME280_temperature;BME280_humidity;BME280_pressure;Samples;Min_cycle;Max_cycle;Signal;HPM_P1;HPM_P2
2024/01/11 00:00:42;;;;;;;58.20;30.00;;;;;;;-4.21;93.57;99923.84;105710;1260;68852;-74
2024/01/11 00:03:09;;;;;;;55.80;32.20;;;;;;;-4.33;93.48;99918.52;106128;1256;72712;-73
2024/01/11 00:05:37;;;;;;;58.70;32.30;;;;;;;-4.31;93.49;99911.50;107159;1260;61241;-73
2024/01/11 00:08:04;;;;;;;56.00;32.50;;;;;;;-4.32;93.45;99907.23;108513;1255;60943;-74
2024/01/11 00:10:32;;;;;;;51.10;27.90;;;;;;;-4.39;93.67;99908.04;107643;1256;71752;-75
2024/01/11 00:12:59;;;;;;;53.90;29.80;;;;;;;-4.43;93.90;99901.17;106499;1256;70705;-76
2024/01/11 00:15:26;;;;;;;53.30;30.70;;;;;;;-4.35;93.66;99897.14;107744;1260;72466;-73
2024/01/11 00:17:54;;;;;;;53.60;30.90;;;;;;;-4.35;93.51;99896.80;107237;1255;59559;-74
2024/01/11 00:20:22;;;;;;;53.20;29.90;;;;;;;-4.41;93.80;99892.09;106497;1258;59617;-74
2024/01/11 00:22:49;;;;;;;49.50;28.00;;;;;;;-4.41;93.90;99893.61;105854;1255;71846;-73
2024/01/11 00:25:17;;;;;;;54.10;30.80;;;;;;;-4.32;93.63;99899.25;105683;1256;68738;-75
2024/01/11 00:27:44;;;;;;;56.60;33.00;;;;;;;-4.35;93.68;99897.16;105482;1256;73915;-74
2024/01/11 00:30:13;;;;;;;49.40;29.20;;;;;;;-4.44;93.95;99889.08;105465;1256;59620;-74
2024/01/11 00:32:40;;;;;;;56.80;31.40;;;;;;;-4.41;93.74;99889.83;105607;1260;60036;-75
2024/01/11 00:35:08;;;;;;;58.00;31.70;;;;;;;-4.35;93.80;99883.84;105536;1256;72902;-74
2024/01/11 00:37:35;;;;;;;56.00;31.30;;;;;;;-4.39;94.01;99880.89;105667;1260;70497;-75
2024/01/11 00:40:03;;;;;;;56.30;29.30;;;;;;;-4.45;94.08;99876.15;105624;1256;72662;-75
2024/01/11 00:42:30;;;;;;;51.10;30.10;;;;;;;-4.39;93.97;99883.49;105528;1256;61596;-75
2024/01/11 00:44:57;;;;;;;54.00;29.80;;;;;;;-4.33;93.83;99875.97;105688;1256;60141;-75
2024/01/11 00:47:25;;;;;;;52.90;30.30;;;;;;;-4.37;94.16;99883.40;105580;1256;72904;-75
2024/01/11 00:49:52;;;;;;;53.50;29.40;;;;;;;-4.42;94.19;99880.67;105628;1256;70121;-76
2024/01/11 00:52:20;;;;;;;55.20;30.30;;;;;;;-4.40;94.07;99876.45;105520;1256;72508;-75
2024/01/11 00:54:47;;;;;;;51.30;28.70;;;;;;;-4.30;93.72;99868.21;105462;1255;59680;-75
2024/01/11 00:57:14;;;;;;;49.20;28.60;;;;;;;-4.30;93.61;99856.48;105520;1256;60497;-75
2024/01/11 00:59:42;;;;;;;50.90;28.30;;;;;;;-4.36;94.04;99856.39;105645;1255;71765;-76
2024/01/11 01:02:09;;;;;;;46.20;26.70;;;;;;;-4.38;94.19;99844.90;105721;1256;68961;-75
2024/01/11 01:04:40;;;;;;;51.00;27.70;;;;;;;-4.30;93.91;99848.33;108658;1256;72659;-74
2024/01/11 01:07:07;;;;;;;51.80;28.50;;;;;;;-4.26;93.53;99840.89;108359;1255;59530;-74
2024/01/11 01:09:35;;;;;;;52.10;29.10;;;;;;;-4.30;93.74;99840.56;106409;1256;60078;-76
2024/01/11 01:12:02;;;;;;;49.00;28.30;;;;;;;-4.27;93.74;99833.67;107435;1254;71848;-74
2024/01/11 01:14:30;;;;;;;44.10;26.50;;;;;;;-4.17;93.47;99835.09;106464;1254;69939;-76
2024/01/11 01:16:57;;;;;;;52.20;29.20;;;;;;;-4.18;93.37;99830.14;105551;1256;71463;-75
2024/01/11 01:19:25;;;;;;;43.90;25.90;;;;;;;-4.25;93.21;99823.73;105615;1258;61841;-74
2024/01/11 01:21:52;;;;;;;43.70;25.80;;;;;;;-4.21;93.36;99822.13;105691;1258;60088;-73
2024/01/11 01:24:20;;;;;;;44.90;26.10;;;;;;;-4.19;93.01;99822.20;105615;1255;71702;-73
2024/01/11 01:26:47;;;;;;;49.40;29.50;;;;;;;-4.25;93.16;99820.27;105789;1256;70017;-73
2024/01/11 01:29:14;;;;;;;56.90;31.30;;;;;;;-4.31;93.48;99819.34;105596;1256;73143;-74
2024/01/11 01:31:42;;;;;;;50.90;30.30;;;;;;;-4.24;93.30;99813.30;105653;1261;59649;-73
2024/01/11 01:34:09;;;;;;;45.20;27.90;;;;;;;-4.18;92.89;99801.44;105515;1261;59716;-74
2024/01/11 01:36:37;;;;;;;47.40;27.30;;;;;;;-4.23;92.95;99806.69;105415;1257;70964;-74
2024/01/11 01:39:04;;;;;;;47.10;28.20;;;;;;;-4.30;92.98;99800.27;105124;1256;68716;-73
2024/01/11 01:41:31;;;;;;;46.70;26.20;;;;;;;-4.30;92.92;99799.75;105350;1260;71114;-74
2024/01/11 01:43:59;;;;;;;47.90;26.90;;;;;;;-4.22;92.73;99799.37;105274;1258;59763;-72
2024/01/11 01:46:27;;;;;;;48.30;28.60;;;;;;;-4.24;92.48;99789.77;105305;1259;59821;-74
2024/01/11 01:48:56;;;;;;;49.10;28.50;;;;;;;-4.32;92.63;99788.08;105577;1256;73276;-73
2024/01/11 01:51:24;;;;;;;49.90;26.50;;;;;;;-4.35;92.58;99784.58;105531;1256;70549;-75
2024/01/11 01:53:52;;;;;;;46.50;27.20;;;;;;;-4.27;92.35;99774.52;106152;1258;72338;-72
2024/01/11 01:56:20;;;;;;;48.80;27.80;;;;;;;-4.25;92.44;99766.46;105945;1259;59772;-76
2024/01/11 01:58:48;;;;;;;55.40;29.80;;;;;;;-4.28;92.62;99760.08;105812;1261;60023;-74
2024/01/11 02:01:16;;;;;;;52.30;29.40;;;;;;;-4.34;92.74;99757.55;107067;1256;70865;-74
2024/01/11 02:03:43;;;;;;;44.70;24.60;;;;;;;-4.31;92.26;99742.53;107027;1256;68731;-73
2024/01/11 02:06:11;;;;;;;48.60;28.10;;;;;;;-4.23;91.98;99735.45;106599;1256;71176;-74
2024/01/11 02:08:38;;;;;;;46.20;28.30;;;;;;;-4.27;91.91;99717.81;105305;1257;59764;-74
2024/01/11 02:11:07;;;;;;;50.40;27.20;;;;;;;-4.34;92.17;99718.35;105327;1256;59710;-73
2024/01/11 02:13:34;;;;;;;53.60;26.40;;;;;;;-4.32;92.20;99714.27;105313;1256;73123;-74
2024/01/11 02:16:01;;;;;;;51.50;31.30;;;;;;;-4.28;91.73;99706.42;105383;1256;69009;-73
2024/01/11 02:18:29;;;;;;;55.20;31.70;;;;;;;-4.32;91.78;99707.70;105657;1260;72542;-73
2024/01/11 02:20:56;;;;;;;54.10;31.70;;;;;;;-4.38;92.07;99695.84;105389;1256;59700;-73
2024/01/11 02:23:24;;;;;;;51.00;29.10;;;;;;;-4.29;92.05;99692.84;105218;1255;60030;-73
2024/01/11 02:25:52;;;;;;;49.80;29.60;;;;;;;-4.28;92.09;99688.80;105390;1258;71802;-74
2024/01/11 02:28:19;;;;;;;53.80;32.20;;;;;;;-4.34;92.13;99684.23;105405;1256;70310;-73
2024/01/11 02:30:47;;;;;;;44.90;28.00;;;;;;;-4.34;91.94;99675.08;105348;1260;70702;-74
2024/01/11 02:33:15;;;;;;;49.70;29.20;;;;;;;-4.26;91.86;99673.33;105136;1256;60826;-74
2024/01/11 02:35:43;;;;;;;52.90;31.40;;;;;;;-4.27;91.77;99667.13;105583;1256;59654;-73
2024/01/11 02:38:14;;;;;;;50.90;31.20;;;;;;;-4.32;92.26;99659.10;105250;1261;73358;-72
2024/01/11 02:40:41;;;;;;;46.90;29.30;;;;;;;-4.34;92.69;99659.38;105549;1260;70778;-74
2024/01/11 02:43:10;;;;;;;51.60;30.30;;;;;;;-4.30;92.51;99651.91;105234;1261;73815;-74
2024/01/11 02:45:37;;;;;;;50.50;29.40;;;;;;;-4.19;92.13;99642.54;105475;1256;60911;-72
2024/01/11 02:48:05;;;;;;;45.40;27.10;;;;;;;-4.18;92.09;99634.70;105325;1261;60091;-73
2024/01/11 02:50:33;;;;;;;46.90;27.30;;;;;;;-4.22;92.39;99635.94;105600;1260;72972;-74
2024/01/11 02:53:00;;;;;;;48.60;28.30;;;;;;;-4.25;92.36;99627.41;105773;1254;70023;-72
2024/01/11 02:55:28;;;;;;;45.40;25.30;;;;;;;-4.14;92.20;99626.38;105357;1256;72952;-73
2024/01/11 02:57:55;;;;;;;45.70;26.60;;;;;;;-4.14;92.17;99624.12;105512;1260;60330;-70
2024/01/11 03:00:23;;;;;;;47.80;27.60;;;;;;;-4.19;92.39;99616.90;106914;1261;60455;-72
2024/01/11 03:02:51;;;;;;;56.50;30.10;;;;;;;-4.20;92.73;99608.48;105486;1256;73917;-72
2024/01/11 03:05:18;;;;;;;45.20;27.60;;;;;;;-4.10;92.45;99600.41;105420;1256;68720;-73
2024/01/11 03:07:46;;;;;;;49.10;26.10;;;;;;;-4.05;92.02;99584.23;105404;1258;71414;-73
2024/01/11 03:10:13;;;;;;;51.00;28.70;;;;;;;-4.09;92.12;99580.62;105313;1256;60468;-73
2024/01/11 03:12:41;;;;;;;52.70;28.80;;;;;;;-4.12;92.33;99582.34;105305;1257;60557;-73
2024/01/11 03:15:09;;;;;;;47.20;27.40;;;;;;;-4.08;92.16;99577.48;105322;1256;73761;-72
2024/01/11 03:17:36;;;;;;;48.50;27.90;;;;;;;-4.00;91.68;99573.03;105414;1256;70141;-72
2024/01/11 03:20:05;;;;;;;49.90;26.80;;;;;;;-4.02;91.74;99566.92;105276;1261;71357;-73
2024/01/11 03:22:33;;;;;;;50.90;27.90;;;;;;;-4.08;91.92;99557.93;105355;1257;60500;-72
2024/01/11 03:25:00;;;;;;;49.70;26.40;;;;;;;-4.12;92.08;99555.89;105244;1256;60588;-72
2024/01/11 03:27:28;;;;;;;48.40;26.40;;;;;;;-4.07;91.75;99547.33;105445;1256;72570;-71
2024/01/11 03:29:55;;;;;;;47.70;27.50;;;;;;;-4.00;91.54;99536.23;105472;1256;69981;-72
2024/01/11 03:32:23;;;;;;;51.30;29.50;;;;;;;-4.04;91.60;99532.11;105167;1259;72661;-72
2024/01/11 03:34:50;;;;;;;49.00;28.10;;;;;;;-4.11;91.92;99526.76;105241;1259;60605;-74
2024/01/11 03:37:18;;;;;;;47.20;25.80;;;;;;;-4.14;92.08;99506.52;105275;1261;60557;-73
2024/01/11 03:39:45;;;;;;;47.00;27.00;;;;;;;-4.07;91.75;99500.27;105186;1260;73776;-74
2024/01/11 03:42:13;;;;;;;50.40;29.00;;;;;;;-4.04;91.54;99481.40;105258;1256;69940;-73
2024/01/11 03:44:40;;;;;;;48.10;27.20;;;;;;;-4.09;91.65;99476.14;105450;1261;71264;-73
2024/01/11 03:47:08;;;;;;;51.60;28.20;;;;;;;-4.16;91.80;99465.23;105100;1258;60489;-72
2024/01/11 03:49:35;;;;;;;47.60;25.90;;;;;;;-4.14;91.67;99462.23;105340;1256;60937;-72
2024/01/11 03:52:03;;;;;;;47.30;26.70;;;;;;;-4.04;91.33;99458.41;105431;1255;73845;-71
2024/01/11 03:54:31;;;;;;;48.20;27.30;;;;;;;-4.03;91.18;99454.23;105908;1260;69181;-71
2024/01/11 03:56:58;;;;;;;47.90;28.70;;;;;;;-4.09;90.83;99454.00;107401;1261;71244;-75
2024/01/11 03:59:26;;;;;;;42.60;24.30;;;;;;;-4.12;90.86;99456.23;107171;1256;59241;-70
2024/01/11 04:01:55;;;;;;;40.50;24.70;;;;;;;-4.06;90.67;99452.29;105703;1261;60423;-72
2024/01/11 04:04:22;;;;;;;46.20;26.50;;;;;;;-3.99;90.12;99442.94;105518;1256;73840;-74
2024/01/11 04:06:51;;;;;;;45.00;26.00;;;;;;;-4.03;90.28;99441.06;105248;1260;70231;-75
2024/01/11 04:09:20;;;;;;;43.60;24.40;;;;;;;-4.07;90.70;99443.02;105883;1259;72705;-72
2024/01/11 04:11:47;;;;;;;43.90;24.90;;;;;;;-4.07;90.59;99439.21;105573;1256;60891;-74
2024/01/11 04:14:15;;;;;;;47.40;24.90;;;;;;;-4.00;90.18;99432.39;105507;1260;60341;-74
2024/01/11 04:16:42;;;;;;;47.30;27.90;;;;;;;-4.01;89.92;99426.40;105249;1259;74127;-73
2024/01/11 04:19:10;;;;;;;39.40;23.10;;;;;;;-4.06;90.12;99441.56;105569;1260;68847;-72
2024/01/11 04:21:40;;;;;;;47.00;24.30;;;;;;;-4.09;90.19;99445.20;105328;1261;71886;-70
2024/01/11 04:24:08;;;;;;;41.40;23.70;;;;;;;-4.02;89.97;99441.49;105187;1261;60986;-73
2024/01/11 04:26:35;;;;;;;39.10;24.50;;;;;;;-4.00;89.71;99445.41;105342;1260;60569;-72
2024/01/11 04:29:03;;;;;;;42.60;24.90;;;;;;;-4.07;90.17;99453.56;105286;1261;73767;-72
2024/01/11 04:31:30;;;;;;;42.70;23.60;;;;;;;-4.12;90.43;99448.13;105344;1258;69343;-72
2024/01/11 04:33:59;;;;;;;41.20;24.00;;;;;;;-4.08;90.44;99440.27;105241;1261;72426;-72
2024/01/11 04:36:26;;;;;;;40.10;23.60;;;;;;;-4.00;90.33;99430.16;105360;1259;61016;-72
2024/01/11 04:38:54;;;;;;;44.30;24.40;;;;;;;-4.01;90.42;99425.55;105194;1261;60452;-71
2024/01/11 04:41:21;;;;;;;42.30;24.20;;;;;;;-4.06;90.57;99426.02;105476;1257;72535;-71
2024/01/11 04:43:49;;;;;;;43.50;23.70;;;;;;;-4.05;90.60;99426.48;105449;1256;70559;-71
2024/01/11 04:46:20;;;;;;;39.20;21.70;;;;;;;-3.97;90.36;99426.70;105285;1261;72621;-71
2024/01/11 04:48:51;;;;;;;41.00;23.80;;;;;;;-3.98;90.31;99425.34;105530;1255;60468;-72
2024/01/11 04:51:18;;;;;;;42.20;25.00;;;;;;;-4.04;90.66;99418.95;105407;1256;60468;-72
2024/01/11 04:53:46;;;;;;;38.30;23.20;;;;;;;-4.06;91.08;99423.06;105555;1261;73803;-71
2024/01/11 04:56:15;;;;;;;41.30;23.30;;;;;;;-3.98;90.81;99418.29;106404;1260;69358;-70
2024/01/11 04:58:43;;;;;;;38.50;23.10;;;;;;;-3.87;90.83;99419.39;107488;1258;71060;-72
2024/01/11 05:01:15;;;;;;;44.50;26.70;;;;;;;-3.87;90.88;99422.88;105521;1256;60418;-71
2024/01/11 05:03:43;;;;;;;45.30;24.60;;;;;;;-3.91;90.93;99419.31;105453;1259;60452;-70
2024/01/11 05:06:21;;;;;;;40.00;24.30;;;;;;;-3.95;91.15;99411.71;105364;1256;71836;-73
2024/01/11 05:08:52;;;;;;;39.50;23.50;;;;;;;-3.88;91.11;99410.99;105508;1256;69769;-72
2024/01/11 05:11:20;;;;;;;39.20;22.30;;;;;;;-3.80;90.93;99411.09;105252;1261;72788;-73
2024/01/11 05:13:48;;;;;;;45.40;25.60;;;;;;;-3.83;91.14;99411.63;105500;1261;60670;-73
2024/01/11 05:16:20;;;;;;;39.60;22.40;;;;;;;-3.91;91.58;99407.70;105478;1258;60351;-72
2024/01/11 05:18:48;;;;;;;38.40;23.20;;;;;;;-3.88;91.70;99396.47;105316;1259;75815;-72
2024/01/11 05:21:16;;;;;;;42.60;23.50;;;;;;;-3.81;91.75;99400.05;105488;1261;70623;-72
2024/01/11 05:23:43;;;;;;;40.10;23.10;;;;;;;-3.85;91.90;99395.61;105279;1261;71734;-72
2024/01/11 05:26:13;;;;;;;44.70;24.70;;;;;;;-3.92;92.47;99395.63;105555;1260;60551;-71
2024/01/11 05:28:40;;;;;;;42.10;23.20;;;;;;;-3.87;92.63;99392.98;105384;1262;60511;-71
2024/01/11 05:31:12;;;;;;;40.90;22.80;;;;;;;-3.77;92.49;99394.96;105316;1260;74110;-71
2024/01/11 05:33:40;;;;;;;39.40;24.00;;;;;;;-3.78;92.85;99394.33;105293;1257;70209;-72
2024/01/11 05:36:08;;;;;;;43.30;24.10;;;;;;;-3.82;93.29;99393.55;105361;1256;71414;-72
2024/01/11 05:38:38;;;;;;;41.60;23.80;;;;;;;-3.82;93.20;99386.95;105253;1256;60888;-72
2024/01/11 05:41:06;;;;;;;40.50;23.90;;;;;;;-3.71;93.10;99390.52;105495;1254;62079;-72
2024/01/11 05:43:33;;;;;;;39.40;23.80;;;;;;;-3.70;93.28;99396.69;105431;1259;72770;-71
2024/01/11 05:46:01;;;;;;;44.70;25.00;;;;;;;-3.76;93.51;99387.83;105382;1256;68351;-73
2024/01/11 05:48:29;;;;;;;38.70;23.00;;;;;;;-3.80;93.82;99389.10;105385;1255;72686;-72
2024/01/11 05:50:56;;;;;;;46.00;24.60;;;;;;;-3.73;93.54;99383.66;105751;1260;60424;-73
2024/01/11 05:53:25;;;;;;;45.30;25.10;;;;;;;-3.69;93.50;99386.05;107531;1256;60250;-71
2024/01/11 05:55:53;;;;;;;43.60;23.90;;;;;;;-3.75;93.75;99381.05;107665;1260;72510;-72
2024/01/11 05:58:22;;;;;;;42.50;24.10;;;;;;;-3.75;93.91;99369.63;105710;1256;70146;-72
2024/01/11 06:00:49;;;;;;;45.00;24.60;;;;;;;-3.67;93.82;99362.77;105449;1261;71435;-77
2024/01/11 06:03:17;;;;;;;44.20;27.50;;;;;;;-3.69;93.84;99356.15;106041;1257;60465;-78
2024/01/11 06:05:44;;;;;;;39.50;22.20;;;;;;;-3.75;94.17;99345.39;105888;1255;60602;-78
2024/01/11 06:08:12;;;;;;;40.50;23.60;;;;;;;-3.72;94.39;99331.90;105721;1257;72615;-77
2024/01/11 06:10:39;;;;;;;39.00;22.90;;;;;;;-3.66;94.12;99318.73;106188;1259;70649;-78
2024/01/11 06:13:06;;;;;;;40.90;23.10;;;;;;;-3.69;94.36;99327.55;105829;1259;72226;-77
2024/01/11 06:15:34;;;;;;;45.00;23.70;;;;;;;-3.75;94.59;99325.30;105591;1259;60442;-76
2024/01/11 06:18:01;;;;;;;42.80;24.70;;;;;;;-3.79;94.91;99321.73;105638;1254;60399;-77
2024/01/11 06:20:29;;;;;;;45.20;24.70;;;;;;;-3.71;94.60;99315.38;105562;1261;71838;-77
2024/01/11 06:22:57;;;;;;;38.00;22.60;;;;;;;-3.67;94.53;99313.27;105638;1260;70434;-76
2024/01/11 06:25:24;;;;;;;40.30;21.60;;;;;;;-3.72;94.94;99317.16;105523;1257;71301;-77
2024/01/11 06:27:51;;;;;;;38.70;23.70;;;;;;;-3.76;95.16;99325.74;105800;1254;60472;-78
2024/01/11 06:30:19;;;;;;;37.70;23.00;;;;;;;-3.68;94.90;99325.98;106091;1256;60592;-77
2024/01/11 06:32:47;;;;;;;39.90;23.50;;;;;;;-3.65;94.83;99326.30;105907;1257;72580;-77
2024/01/11 06:35:15;;;;;;;38.30;22.20;;;;;;;-3.68;95.07;99312.80;105742;1255;70473;-76
2024/01/11 06:37:43;;;;;;;39.10;22.00;;;;;;;-3.71;95.15;99312.64;105642;1258;71305;-76
2024/01/11 06:40:10;;;;;;;36.30;21.60;;;;;;;-3.63;94.76;99311.45;105575;1256;61217;-77
2024/01/11 06:42:38;;;;;;;40.10;23.00;;;;;;;-3.56;94.59;99312.61;105666;1257;60553;-77
2024/01/11 06:45:05;;;;;;;38.00;22.50;;;;;;;-3.60;94.60;99315.44;105787;1259;72641;-76
2024/01/11 06:47:33;;;;;;;38.10;21.70;;;;;;;-3.64;94.56;99316.53;105868;1259;69107;-80
2024/01/11 06:50:01;;;;;;;40.20;23.60;;;;;;;-3.57;94.33;99311.27;107756;1254;71611;-78
2024/01/11 06:52:28;;;;;;;39.60;22.10;;;;;;;-3.52;94.02;99310.48;108951;1256;58276;-76
2024/01/11 06:54:55;;;;;;;44.40;23.30;;;;;;;-3.56;94.28;99307.77;108146;1254;60635;-81
2024/01/11 06:57:24;;;;;;;37.60;21.50;;;;;;;-3.59;94.56;99308.14;106854;1260;72630;-80
2024/01/11 06:59:52;;;;;;;40.60;23.50;;;;;;;-3.50;94.43;99308.83;106477;1260;69999;-80
2024/01/11 07:02:19;;;;;;;41.40;23.80;;;;;;;-3.44;94.13;99313.82;105666;1257;72458;-79
2024/01/11 07:04:47;;;;;;;42.40;23.20;;;;;;;-3.46;94.34;99312.77;105752;1261;60336;-79
2024/01/11 07:07:14;;;;;;;39.70;22.30;;;;;;;-3.51;94.70;99310.09;105750;1254;60582;-80
2024/01/11 07:09:42;;;;;;;36.70;20.00;;;;;;;-3.52;94.79;99298.37;107364;1257;74848;-79
2024/01/11 07:12:09;;;;;;;35.50;21.70;;;;;;;-3.43;94.38;99291.77;107020;1259;69318;-80
2024/01/11 07:14:37;;;;;;;36.80;22.70;;;;;;;-3.38;94.25;99289.22;105833;1260;73730;-80
2024/01/11 07:17:04;;;;;;;42.90;24.90;;;;;;;-3.39;94.74;99287.37;105866;1259;60463;-80
2024/01/11 07:19:32;;;;;;;37.90;22.30;;;;;;;-3.40;95.08;99283.44;106524;1253;60413;-80
2024/01/11 07:21:59;;;;;;;38.80;21.80;;;;;;;-3.41;94.93;99285.95;105892;1262;73638;-81
2024/01/11 07:24:29;;;;;;;42.20;22.60;;;;;;;-3.33;94.59;99277.15;105881;1260;70401;-80
2024/01/11 07:26:57;;;;;;;39.00;21.80;;;;;;;-3.28;94.14;99275.48;107415;1256;71766;-80
2024/01/11 07:29:24;;;;;;;39.50;23.00;;;;;;;-3.37;94.30;99273.09;107217;1260;60419;-79
2024/01/11 07:31:51;;;;;;;41.60;22.90;;;;;;;-3.44;94.67;99278.15;107183;1257;60541;-79
2024/01/11 07:34:19;;;;;;;33.80;20.00;;;;;;;-3.39;94.71;99271.94;106185;1257;74057;-82
2024/01/11 07:36:46;;;;;;;35.70;21.20;;;;;;;-3.30;94.47;99268.67;106315;1267;69167;-81
2024/01/11 07:39:14;;;;;;;41.00;24.00;;;;;;;-3.32;94.59;99268.94;106508;1262;74669;-80
2024/01/11 07:41:41;;;;;;;35.40;21.40;;;;;;;-3.38;94.97;99258.73;106049;1260;60492;-79
2024/01/11 07:44:09;;;;;;;40.30;22.30;;;;;;;-3.41;95.13;99260.84;106317;1259;60530;-80
2024/01/11 07:46:37;;;;;;;40.10;24.20;;;;;;;-3.34;94.91;99252.77;107897;1254;71777;-80
2024/01/11 07:49:16;;;;;;;37.00;22.20;;;;;;;-3.28;94.59;99243.48;108938;1257;69107;-80
2024/01/11 07:51:43;;;;;;;43.90;24.10;;;;;;;-3.31;94.91;99246.41;107404;1261;71882;-79
2024/01/11 07:54:11;;;;;;;38.90;21.90;;;;;;;-3.34;95.24;99244.67;107032;1256;60892;-80
2024/01/11 07:56:38;;;;;;;35.90;21.20;;;;;;;-3.26;94.70;99236.38;106359;1255;60621;-80
2024/01/11 07:59:06;;;;;;;42.10;22.80;;;;;;;-3.18;94.37;99242.32;106196;1260;72669;-80
2024/01/11 08:01:35;;;;;;;37.90;23.00;;;;;;;-3.22;94.45;99244.80;106059;1255;70108;-78
2024/01/11 08:04:03;;;;;;;35.40;21.00;;;;;;;-3.27;94.69;99245.97;106261;1258;71741;-82
2024/01/11 08:06:31;;;;;;;39.40;23.40;;;;;;;-3.23;94.69;99244.83;106359;1260;60370;-80
2024/01/11 08:08:59;;;;;;;37.90;22.70;;;;;;;-3.14;94.00;99246.55;105971;1256;60448;-81
2024/01/11 08:11:28;;;;;;;36.80;21.70;;;;;;;-3.15;94.13;99245.92;105864;1260;73216;-80
2024/01/11 08:13:58;;;;;;;40.20;22.60;;;;;;;-3.19;94.26;99247.74;105820;1260;69870;-80
2024/01/11 08:16:26;;;;;;;38.20;22.70;;;;;;;-3.21;94.38;99253.37;105737;1254;75098;-82
2024/01/11 08:18:54;;;;;;;39.70;22.80;;;;;;;-3.10;93.94;99255.69;105838;1256;63036;-81
2024/01/11 08:21:22;;;;;;;38.00;21.80;;;;;;;-3.10;93.35;99262.79;106580;1254;60442;-82
2024/01/11 08:23:49;;;;;;;44.70;23.60;;;;;;;-3.17;93.68;99260.45;108207;1258;72409;-80
2024/01/11 08:26:19;;;;;;;38.40;21.90;;;;;;;-3.20;93.98;99262.20;108051;1256;70274;-80
2024/01/11 08:28:48;;;;;;;37.30;22.80;;;;;;;-3.11;93.76;99266.14;108186;1256;71436;-81
2024/01/11 08:31:15;;;;;;;41.00;23.30;;;;;;;-3.00;93.08;99268.94;107370;1261;60491;-81
2024/01/11 08:33:42;;;;;;;37.00;23.10;;;;;;;-3.02;92.89;99273.55;106155;1255;60623;-79
2024/01/11 08:36:11;;;;;;;39.00;22.40;;;;;;;-3.05;93.54;99270.80;105910;1260;72562;-79
2024/01/11 08:38:39;;;;;;;40.40;23.00;;;;;;;-3.05;93.84;99266.81;105839;1267;70305;-79
2024/01/11 08:41:06;;;;;;;37.80;21.30;;;;;;;-3.05;93.63;99267.15;106195;1257;72677;-79
2024/01/11 08:43:34;;;;;;;36.40;21.70;;;;;;;-2.95;92.74;99262.02;107633;1255;61586;-80
2024/01/11 08:46:02;;;;;;;38.50;23.40;;;;;;;-2.86;92.15;99254.38;109245;1256;58760;-80
2024/01/11 08:48:35;;;;;;;37.00;21.10;;;;;;;-2.88;92.09;99246.54;108517;1255;72598;-79
2024/01/11 08:51:03;;;;;;;45.50;25.00;;;;;;;-2.95;92.19;99251.64;107372;1258;68753;-80
2024/01/11 08:53:30;;;;;;;41.10;22.80;;;;;;;-2.98;92.34;99243.48;106603;1257;70650;-80
2024/01/11 08:55:58;;;;;;;39.20;22.30;;;;;;;-2.86;92.10;99245.23;106611;1258;60945;-80
2024/01/11 08:58:26;;;;;;;42.20;24.70;;;;;;;-2.82;91.72;99245.51;106019;1254;60427;-80
2024/01/11 09:00:54;;;;;;;41.50;23.70;;;;;;;-2.88;91.94;99245.48;105907;1254;74264;-81
2024/01/11 09:03:22;;;;;;;40.40;23.50;;;;;;;-2.91;92.15;99238.43;106102;1257;69981;-81
2024/01/11 09:05:50;;;;;;;36.40;21.50;;;;;;;-2.91;91.85;99233.38;105946;1254;72807;-80
2024/01/11 09:08:17;;;;;;;40.10;22.90;;;;;;;-2.82;91.31;99225.00;107242;1260;60467;-79
2024/01/11 09:10:45;;;;;;;37.40;21.80;;;;;;;-2.81;91.28;99225.64;106401;1258;60369;-79
2024/01/11 09:13:12;;;;;;;40.80;23.60;;;;;;;-2.87;91.28;99220.30;105857;1254;73787;-78
2024/01/11 09:15:42;;;;;;;35.40;22.70;;;;;;;-2.92;91.46;99211.29;105870;1254;69272;-80
2024/01/11 09:18:09;;;;;;;37.70;22.20;;;;;;;-2.94;91.38;99204.63;105705;1261;71392;-80
2024/01/11 09:20:37;;;;;;;37.10;21.00;;;;;;;-2.86;90.86;99198.73;105835;1259;60433;-79
2024/01/11 09:23:05;;;;;;;39.00;22.50;;;;;;;-2.89;90.77;99196.15;106210;1256;60326;-81
2024/01/11 09:25:33;;;;;;;36.40;21.80;;;;;;;-2.98;90.81;99183.20;106420;1254;73973;-80
2024/01/11 09:28:00;;;;;;;38.40;22.80;;;;;;;-3.02;91.19;99176.72;106241;1258;72615;-80
2024/01/11 09:30:27;;;;;;;35.70;22.00;;;;;;;-2.93;91.23;99171.66;106497;1253;71533;-79
2024/01/11 09:32:55;;;;;;;41.80;22.70;;;;;;;-2.85;90.90;99173.59;107176;1257;60422;-80
2024/01/11 09:35:23;;;;;;;37.60;21.20;;;;;;;-2.87;90.89;99168.13;106973;1261;59689;-78
2024/01/11 09:37:51;;;;;;;39.00;21.70;;;;;;;-2.91;90.88;99169.66;107417;1258;72434;-81
2024/01/11 09:40:18;;;;;;;38.10;22.90;;;;;;;-2.88;90.76;99167.91;108302;1254;68956;-79
2024/01/11 09:42:46;;;;;;;37.30;22.80;;;;;;;-2.78;90.42;99165.15;107132;1258;71062;-79
2024/01/11 09:45:17;;;;;;;35.60;20.70;;;;;;;-2.77;90.61;99161.09;108665;1256;60333;-80
2024/01/11 09:47:45;;;;;;;44.00;23.90;;;;;;;-2.80;90.75;99158.02;108772;1254;60964;-79
2024/01/11 09:50:17;;;;;;;37.80;21.00;;;;;;;-2.83;90.89;99151.56;107343;1257;74870;-79
2024/01/11 09:52:48;;;;;;;37.60;21.80;;;;;;;-2.73;90.38;99154.80;106355;1258;69581;-80
2024/01/11 09:55:16;;;;;;;37.00;22.30;;;;;;;-2.63;90.14;99152.20;105911;1259;74733;-79
2024/01/11 09:57:48;;;;;;;37.40;22.70;;;;;;;-2.63;90.08;99148.58;105896;1254;60611;-79
2024/01/11 10:00:22;;;;;;;38.60;23.10;;;;;;;-2.68;89.85;99140.93;105952;1253;61161;-80
2024/01/11 10:02:49;;;;;;;39.50;22.00;;;;;;;-2.72;89.48;99137.23;105745;1260;72769;-80
2024/01/11 10:05:17;;;;;;;40.40;24.40;;;;;;;-2.65;89.17;99145.77;105956;1254;69417;-80
2024/01/11 10:07:48;;;;;;;36.60;21.80;;;;;;;-2.57;88.94;99143.15;106125;1256;71460;-81
2024/01/11 10:10:15;;;;;;;36.70;21.90;;;;;;;-2.62;88.66;99135.67;105899;1260;60858;-80
2024/01/11 11:08:15;;;;;;;36.60;21.50;;;;;;;-2.53;86.58;99049.80;105646;1277;613856;-79
2024/01/11 11:10:47;;;;;;;36.50;22.90;;;;;;;-2.58;86.59;99057.73;105460;1267;59676;-80
2024/01/11 11:13:14;;;;;;;36.80;21.80;;;;;;;-2.62;86.51;99054.36;105337;1268;60067;-80
2024/01/11 11:15:45;;;;;;;38.90;21.80;;;;;;;-2.59;86.63;99043.79;105481;1270;71669;-81
2024/01/11 11:18:13;;;;;;;33.90;20.90;;;;;;;-2.50;86.46;99038.70;105823;1268;68922;-79
2024/01/11 11:20:42;;;;;;;36.20;21.00;;;;;;;-2.52;86.55;99043.70;105808;1266;141779;-80
2024/01/11 11:23:10;;;;;;;38.70;22.50;;;;;;;-2.58;86.54;99044.73;106034;1264;59079;-82
2024/01/11 11:25:38;;;;;;;36.00;21.80;;;;;;;-2.62;86.40;99041.17;106245;1263;59115;-80
2024/01/11 11:28:05;;;;;;;35.50;21.70;;;;;;;-2.55;86.39;99034.15;106981;1259;72161;-79
2024/01/11 11:30:33;;;;;;;35.60;22.00;;;;;;;-2.48;86.16;99027.95;106810;1261;68812;-80
2024/01/11 11:33:10;;;;;;;38.00;22.70;;;;;;;-2.50;86.29;99023.06;106541;1261;74201;-72
2024/01/11 11:35:37;;;;;;;37.20;22.70;;;;;;;-2.52;86.53;99021.17;105566;1273;59626;-74
2024/01/11 11:38:05;;;;;;;38.50;21.50;;;;;;;-2.54;86.39;99018.69;105652;1263;59743;-73
2024/01/11 11:40:38;;;;;;;35.90;22.00;;;;;;;-2.46;86.05;99024.89;107345;1261;74729;-74
2024/01/11 11:43:05;;;;;;;34.80;20.50;;;;;;;-2.39;85.81;99015.56;107738;1261;70116;-75
2024/01/11 11:45:32;;;;;;;37.90;22.10;;;;;;;-2.42;85.92;99008.81;106427;1260;71588;-75
2024/01/11 11:47:59;;;;;;;37.00;22.80;;;;;;;-2.44;86.12;99011.79;105720;1261;60466;-75
2024/01/11 11:50:26;;;;;;;33.70;19.50;;;;;;;-2.48;85.88;99014.09;106052;1257;60175;-75
2024/01/11 11:52:55;;;;;;;35.30;21.10;;;;;;;-2.44;85.64;99015.23;106037;1257;73925;-73
2024/01/11 11:55:24;;;;;;;35.90;22.20;;;;;;;-2.35;85.47;99009.39;106263;1256;69296;-74
2024/01/11 11:57:52;;;;;;;35.50;22.20;;;;;;;-2.36;85.42;98997.35;105960;1254;72734;-74
2024/01/11 12:00:23;;;;;;;39.50;23.80;;;;;;;-2.41;85.50;98993.67;106186;1253;59653;-73
2024/01/11 12:02:51;;;;;;;38.50;21.30;;;;;;;-2.45;85.61;98990.49;106066;1256;59726;-73
2024/01/11 12:05:19;;;;;;;32.20;19.00;;;;;;;-2.47;85.54;98984.90;106057;1254;71800;-73
2024/01/11 12:07:47;;;;;;;32.50;20.90;;;;;;;-2.39;85.23;98974.30;106030;1257;70146;-74